Moweaqua, IL (62550)

5:21 PM CST on November 27, 2014 (GMT -0600)
Sandhill Dr. | Change Station
CLOSE
Current Station
Personal Weather Station
Location: Decatur, IL
Elevation: 676 ft
Nearby Weather Stations

Elev 676 ft 39.82 °N, 88.92 °W | Updated 0 second ago

Mostly Cloudy
Mostly Cloudy
20.5 °F
Feels Like 12 °F
N
6.4
Wind Variable Wind from NW
Gusts 6.4 mph

Today
High -- | Low -- °F
--% Chance of Precip.
Yesterday
High -- | Low -- °F
Precip. -- in
6:53 AM 4:33 PM
Waxing Crescent, 34% visible
Pressure 30.49 in
Visibility 10.0 miles
Clouds Overcast 2000 ft
Windchill 12 °F
Dew Point 19 °F
Humidity 92%
Rainfall 0.00 in
Snow Depth Not available.
UV 0 out of 12
Pollen .10 out of 12
Air Quality Not available.
Flu Activity Not available.
METAR KDEC 272254Z AUTO 29010KT 10SM OVC020 M06/M09 A3045 RMK AO2 SLP323 T10561094 TSNO

More Conditions Fewer Conditions

Pressure 30.49 in
Visibility 10.0 miles
Clouds Overcast 2000 ft
Windchill 12 °F
Dew Point 19 °F
Humidity 92%
Rainfall 0.00 in
Snow Depth Not available.
UV 0 out of 12
Pollen .10 out of 12
Air Quality Not available.
Flu Activity Not available.
METAR KDEC 272254Z AUTO 29010KT 10SM OVC020 M06/M09 A3045 RMK AO2 SLP323 T10561094 TSNO

More Conditions Fewer Conditions

10-Day Weather Forecast

Almanac

Astronomy

Nov. 27, 2014 Rise Set
Actual Time
Civil Twilight
Nautical Twilight
Astronomical Twilight
Moon
Length of Visible Light
Length of Day
Tomorrow will be .
, % of the Moon is Illuminated

Today's Extremes

State Highs State Lows

Community

WunderPhotos

Upload Photos

1,774,135 photos uploaded!

WunderBlogs® & News

Nearby

Air Quality

  Air Quality AQ Index Pollutant
Not available.

Snow Depth

Station Depth Elevation

Earthquake Activity

City Distance Mag. Time & Date
Minimum magnitude displayed is 2.5.

Coastal Water Temperatures

Place Temperature

Nearby Weather Stations